Time;durP1;ratioP1;P1;durP2;ratioP2;P2;SDS_P1;SDS_P2;PMS_P1;PMS_P2;Temp;Humidity;BMP_temperature;BMP_pressure;BME280_temperature;BME280_humidity;BME280_pressure;Samples;Min_cycle;Max_cycle;Signal;HPM_P1;HPM_P2
2022/12/19 00:01:35;;;;;;;;;25.25;23.75;;;;;4.06;80.01;101232.91;5035464;28;45214;-50
2022/12/19 00:04:03;;;;;;;;;30.75;30.25;;;;;4.07;79.84;101249.03;5035206;28;45480;-54
2022/12/19 00:06:29;;;;;;;;;28.80;26.00;;;;;3.79;80.17;101202.97;5035252;28;45459;-52
2022/12/19 00:08:55;;;;;;;;;37.75;24.50;;;;;3.87;79.58;101218.47;5035069;28;45372;-55
2022/12/19 00:11:21;;;;;;;;;25.40;24.60;;;;;4.15;80.02;101250.09;5035411;28;45349;-56
2022/12/19 00:13:47;;;;;;;;;25.40;21.00;;;;;4.15;80.15;101248.25;5049853;28;45447;-54
2022/12/19 00:16:16;;;;;;;;;21.25;21.25;;;;;4.17;80.24;101237.25;5055160;28;45438;-55
2022/12/19 00:18:43;;;;;;;;;27.80;22.20;;;;;4.23;79.58;101239.34;5070676;28;45450;-53
2022/12/19 00:21:09;;;;;;;;;26.20;22.40;;;;;4.24;79.55;101234.72;5055374;28;45498;-54
2022/12/19 00:23:35;;;;;;;;;23.60;23.20;;;;;4.26;79.42;101241.72;5055376;28;45375;-54
2022/12/19 00:26:10;;;;;;;;;33.50;27.25;;;;;4.29;79.33;101243.28;5054743;28;46533;-56
2022/12/19 00:28:35;;;;;;;;;32.00;28.60;;;;;4.29;80.15;101243.28;5055071;28;45332;-52
2022/12/19 00:31:02;;;;;;;;;29.25;27.50;;;;;4.23;79.42;101236.63;5019632;28;45969;-50
2022/12/19 00:33:27;;;;;;;;;26.60;24.80;;;;;4.31;79.35;101231.22;5054075;28;45721;-51
2022/12/19 00:36:00;;;;;;;;;27.50;23.75;;;;;4.34;79.07;101230.06;5053598;28;46144;-52
2022/12/19 00:38:26;;;;;;;;;31.20;26.80;;;;;4.36;78.96;101227.19;5054763;28;45324;-55
2022/12/19 00:40:51;;;;;;;;;26.25;22.75;;;;;4.40;79.10;101229.44;5055105;28;45425;-51
2022/12/19 00:43:17;;;;;;;;;27.50;23.50;;;;;4.42;79.45;101230.13;5054909;28;45617;-52
2022/12/19 00:45:42;;;;;;;;;22.50;20.00;;;;;4.44;79.61;101219.94;5055132;28;45485;-52
2022/12/19 00:48:08;;;;;;;;;27.00;25.50;;;;;4.19;79.40;101170.00;5055260;28;45295;-52
2022/12/19 00:50:33;;;;;;;;;35.75;29.00;;;;;4.44;79.38;101208.22;5054943;28;45256;-51
2022/12/19 00:52:59;;;;;;;;;23.25;22.00;;;;;4.46;79.03;101207.03;5070942;28;45587;-52
2022/12/19 00:55:25;;;;;;;;;31.50;26.50;;;;;4.46;79.14;101203.47;5054794;28;45251;-56
2022/12/19 00:57:50;;;;;;;;;29.50;23.75;;;;;4.45;79.62;101199.03;5055146;28;45410;-56
2022/12/19 01:00:16;;;;;;;;;22.50;20.00;;;;;4.18;79.13;101147.41;5054925;28;45386;-52
2022/12/19 01:02:42;;;;;;;;;29.50;22.75;;;;;4.44;78.65;101190.03;5055001;28;45314;-54
2022/12/19 01:05:08;;;;;;;;;22.75;19.00;;;;;4.52;79.86;101199.25;5054970;28;45403;-55
2022/12/19 01:07:33;;;;;;;;;23.00;21.80;;;;;4.53;78.63;101188.22;5054517;28;45333;-52
2022/12/19 01:09:59;;;;;;;;;30.00;22.75;;;;;4.58;79.76;101198.59;5053996;28;45353;-54
2022/12/19 01:15:08;;;;;;;;;24.80;19.00;;;;;4.56;79.13;101196.06;5034733;28;45845;-51
2022/12/19 01:17:34;;;;;;;;;27.75;23.50;;;;;4.57;78.88;101191.47;5034268;28;45396;-54
2022/12/19 01:20:00;;;;;;;;;22.00;20.75;;;;;4.57;78.96;101195.03;5034858;28;45309;-52
2022/12/19 01:22:25;;;;;;;;;24.25;20.50;;;;;4.59;79.68;101198.44;5033563;28;45563;-57
2022/12/19 01:24:50;;;;;;;;;22.50;19.75;;;;;4.62;79.52;101202.72;5033075;28;48364;-55
2022/12/19 01:27:16;;;;;;;;;22.50;18.75;;;;;4.59;79.53;101189.47;5033102;28;45406;-56
2022/12/19 01:29:41;;;;;;;;;21.25;18.25;;;;;4.64;79.61;101192.53;5032927;28;45796;-55
2022/12/19 01:32:07;;;;;;;;;23.00;23.00;;;;;4.69;79.61;101201.06;5034822;28;45562;-56
2022/12/19 01:34:32;;;;;;;;;25.75;22.75;;;;;4.68;79.18;101193.03;5033884;28;45386;-56
2022/12/19 01:36:58;;;;;;;;;23.75;20.00;;;;;4.71;78.87;101196.28;5034398;28;45369;-55
2022/12/19 01:39:23;;;;;;;;;29.25;20.00;;;;;4.78;78.33;101206.53;5018948;28;45349;-55
2022/12/19 01:41:49;;;;;;;;;21.50;19.25;;;;;4.81;79.24;101196.16;5037802;28;45298;-54
2022/12/19 01:44:14;;;;;;;;;18.25;17.75;;;;;4.83;79.32;101196.88;5036515;28;45286;-55
2022/12/19 01:46:45;;;;;;;;;21.25;16.50;;;;;4.84;78.22;101190.41;5036110;28;45299;-56
2022/12/19 01:49:15;;;;;;;;;18.00;18.00;;;;;4.75;78.59;101167.78;5036484;28;45444;-56
2022/12/19 01:51:43;;;;;;;;;21.20;18.40;;;;;4.85;79.19;101183.09;5020128;28;45414;-54
2022/12/19 01:54:10;;;;;;;;;22.60;18.00;;;;;4.66;79.25;101151.56;5037563;28;46903;-53
2022/12/19 01:56:39;;;;;;;;;26.60;22.80;;;;;4.92;78.61;101181.44;5019589;28;45432;-51
2022/12/19 01:59:10;;;;;;;;;18.80;15.60;;;;;4.94;78.23;101184.84;5036378;28;45314;-57
2022/12/19 02:01:37;;;;;;;;;24.20;18.20;;;;;4.85;78.42;101166.78;5036891;28;45358;-54
2022/12/19 02:04:02;;;;;;;;;22.00;16.80;;;;;4.92;78.74;101184.19;5019407;28;46347;-52
2022/12/19 02:06:29;;;;;;;;;23.75;16.00;;;;;5.01;78.59;101204.06;5036250;28;45444;-50
2022/12/19 02:08:55;;;;;;;;;20.20;18.40;;;;;4.98;78.31;101197.13;5036220;28;45383;-54
2022/12/19 02:11:20;;;;;;;;;20.00;17.50;;;;;5.01;78.46;101204.94;5036389;28;45257;-56
2022/12/19 02:13:46;;;;;;;;;16.75;15.75;;;;;5.01;78.52;101198.63;5028502;28;46945;-56
2022/12/19 02:16:33;;;;;;;;;12.25;10.00;;;;;5.05;79.14;101189.13;5057261;28;45270;-55
2022/12/19 02:19:32;;;;;;;;;17.60;16.80;;;;;4.73;78.44;101137.19;5019484;28;45511;-54
2022/12/19 02:22:08;;;;;;;;;9.40;8.20;;;;;4.88;78.68;101161.03;5036536;28;45345;-56
2022/12/19 02:25:16;;;;;;;;;18.40;15.60;;;;;5.09;78.84;101186.94;5019844;28;46406;-53
2022/12/19 02:28:08;;;;;;;;;23.80;18.00;;;;;5.10;78.20;101188.63;5034471;28;45415;-51
2022/12/19 02:30:45;;;;;;;;;18.40;16.60;;;;;5.10;78.78;101185.91;5034700;28;45388;-55
2022/12/19 02:33:16;;;;;;;;;18.60;18.60;;;;;5.01;78.74;101191.34;5036278;28;45213;-55
2022/12/19 02:35:44;;;;;;;;;13.40;12.80;;;;;4.90;78.71;101161.69;5019491;28;45610;-55
2022/12/19 02:38:29;;;;;;;;;16.60;16.20;;;;;5.12;78.80;101203.78;5035561;28;45320;-51
2022/12/19 02:41:02;;;;;;;;;19.20;18.20;;;;;5.10;79.08;101191.38;5035918;28;45431;-51
2022/12/19 02:43:29;;;;;;;;;15.60;15.60;;;;;4.92;78.55;101150.66;5018909;28;45448;-52
2022/12/19 02:45:55;;;;;;;;;17.60;15.60;;;;;5.17;79.56;101203.28;5018802;28;45430;-56
2022/12/19 02:48:21;;;;;;;;;17.00;17.00;;;;;4.97;79.17;101160.03;5034964;28;45464;-56
2022/12/19 02:50:47;;;;;;;;;20.75;15.50;;;;;5.20;78.79;101197.53;5035225;28;45463;-54
2022/12/19 02:53:13;;;;;;;;;20.80;16.20;;;;;5.20;79.23;101200.25;5036776;28;45610;-53
2022/12/19 02:55:48;;;;;;;;;18.20;17.80;;;;;5.22;79.45;101200.09;5035370;28;46400;-53
2022/12/19 02:58:22;;;;;;;;;23.60;18.20;;;;;5.17;79.74;101175.25;5036329;28;45238;-57
2022/12/19 03:00:59;;;;;;;;;21.00;17.00;;;;;5.19;79.83;101179.50;5036255;28;45396;-54
2022/12/19 03:03:32;;;;;;;;;17.40;16.00;;;;;5.24;80.39;101177.13;5019128;28;45377;-55
2022/12/19 03:06:11;;;;;;;;;18.00;16.60;;;;;5.12;79.96;101162.13;5036392;28;46075;-50
2022/12/19 03:08:43;;;;;;;;;16.60;16.60;;;;;5.26;80.48;101183.25;5019133;28;45388;-52
2022/12/19 03:11:13;;;;;;;;;16.40;16.00;;;;;5.28;79.57;101188.53;5036751;28;45425;-55
2022/12/19 03:13:59;;;;;;;;;17.00;13.00;;;;;5.28;80.39;101181.22;5023669;28;45266;-55
2022/12/19 03:16:25;;;;;;;;;19.20;15.60;;;;;5.11;79.61;101152.25;5054393;28;46244;-53
2022/12/19 03:18:51;;;;;;;;;18.00;16.50;;;;;5.30;80.46;101186.50;5037986;28;45398;-53
2022/12/19 03:21:41;;;;;;;;;16.00;14.20;;;;;5.32;79.57;101181.75;5055204;28;45270;-53
2022/12/19 03:24:08;;;;;;;;;18.20;16.60;;;;;5.35;79.89;101188.72;5058447;28;45413;-54
2022/12/19 03:26:37;;;;;;;;;21.40;17.60;;;;;5.15;79.70;101145.47;5055813;28;45449;-56
2022/12/19 03:29:11;;;;;;;;;21.00;14.00;;;;;5.38;80.12;101191.97;5055291;28;46044;-56
2022/12/19 03:31:37;;;;;;;;;19.00;16.00;;;;;5.08;80.34;101133.53;5055936;28;45225;-54
2022/12/19 03:34:09;;;;;;;;;10.25;9.25;;;;;5.36;80.47;101171.38;5021785;28;45463;-55
2022/12/19 03:36:40;;;;;;;;;18.20;15.00;;;;;5.47;80.34;101175.63;5054619;28;45893;-55
2022/12/19 03:39:06;;;;;;;;;16.20;15.40;;;;;5.37;79.58;101162.19;5038002;28;45459;-55
2022/12/19 03:44:16;;;;;;;;;16.00;14.20;;;;;5.51;80.66;101169.69;5054939;28;45376;-50
2022/12/19 03:46:47;;;;;;;;;16.50;14.50;;;;;5.26;79.61;101122.53;5055962;28;46359;-53
2022/12/19 03:49:13;;;;;;;;;17.20;17.00;;;;;5.31;80.47;101133.75;5038166;28;45363;-57
2022/12/19 03:52:07;;;;;;;;;17.00;15.00;;;;;5.52;80.41;101168.69;5038073;28;45630;-56
2022/12/19 03:54:36;;;;;;;;;17.60;17.60;;;;;5.54;79.53;101169.38;5057267;28;45432;-53
2022/12/19 03:57:08;;;;;;;;;19.00;15.20;;;;;5.44;80.32;101149.59;5054446;28;46068;-54
2022/12/19 03:59:40;;;;;;;;;13.40;10.60;;;;;5.55;80.38;101167.50;5054356;28;45375;-55
2022/12/19 04:02:05;;;;;;;;;15.00;14.60;;;;;5.47;79.38;101152.00;5055268;28;45190;-54
2022/12/19 04:04:34;;;;;;;;;18.50;16.25;;;;;5.63;79.97;101174.81;5054852;28;45607;-55
2022/12/19 04:07:00;;;;;;;;;21.80;17.40;;;;;5.63;79.58;101182.97;5055416;28;45870;-56
2022/12/19 04:09:26;;;;;;;;;18.50;17.00;;;;;5.65;79.59;101175.50;5054535;28;45489;-54
2022/12/19 04:11:59;;;;;;;;;14.00;14.00;;;;;5.54;79.38;101161.19;5054477;28;45451;-51
2022/12/19 04:14:30;;;;;;;;;16.40;12.40;;;;;5.61;80.10;101171.41;5044419;28;45452;-55
2022/12/19 04:17:24;;;;;;;;;17.80;17.80;;;;;5.70;80.06;101187.59;5033914;28;46109;-57
2022/12/19 04:20:04;;;;;;;;;17.00;16.00;;;;;5.23;79.88;101098.38;5038736;28;45327;-53
2022/12/19 04:22:35;;;;;;;;;18.60;15.60;;;;;5.64;79.30;101171.06;5034622;28;45405;-51
2022/12/19 04:25:01;;;;;;;;;15.40;13.20;;;;;5.70;78.98;101190.31;5034079;28;45230;-54
2022/12/19 04:27:26;;;;;;;;;15.00;12.50;;;;;5.72;79.31;101195.59;5035089;28;45858;-53
2022/12/19 04:29:54;;;;;;;;;17.50;14.75;;;;;5.75;79.85;101191.66;5017124;28;45261;-57
2022/12/19 04:32:19;;;;;;;;;19.40;14.20;;;;;5.77;79.68;101192.38;5017577;28;45407;-57
2022/12/19 04:34:45;;;;;;;;;16.50;14.50;;;;;5.78;79.78;101196.78;5034165;28;45645;-55
2022/12/19 04:37:11;;;;;;;;;14.25;12.50;;;;;5.59;79.37;101157.97;5034926;28;45416;-55
2022/12/19 04:39:36;;;;;;;;;11.00;10.60;;;;;5.72;79.51;101179.25;5035046;28;45431;-54
2022/12/19 04:42:02;;;;;;;;;16.25;15.75;;;;;5.80;79.56;101189.28;5034541;28;45543;-53
2022/12/19 04:44:27;;;;;;;;;14.25;13.25;;;;;5.82;79.58;101185.38;5034955;28;45376;-51
2022/12/19 04:46:53;;;;;;;;;15.25;13.75;;;;;5.81;79.15;101188.25;5034866;28;45944;-53
2022/12/19 04:49:19;;;;;;;;;14.80;13.40;;;;;5.84;79.88;101183.31;5034261;28;45202;-54
2022/12/19 04:51:45;;;;;;;;;14.75;13.50;;;;;5.86;79.47;101185.06;5033576;28;45334;-54
2022/12/19 04:54:11;;;;;;;;;12.75;10.00;;;;;5.82;79.39;101184.53;5007668;28;45575;-56
2022/12/19 04:56:36;;;;;;;;;18.50;13.50;;;;;5.68;79.23;101158.81;5033671;28;46277;-55
2022/12/19 04:59:02;;;;;;;;;12.25;12.25;;;;;5.90;79.67;101187.25;5034435;28;45408;-51
2022/12/19 05:01:27;;;;;;;;;16.00;13.50;;;;;5.85;79.55;101178.75;5033316;28;45463;-51
2022/12/19 05:03:53;;;;;;;;;14.25;13.50;;;;;5.91;79.75;101186.25;5034814;28;45447;-54
2022/12/19 05:06:19;;;;;;;;;17.00;14.75;;;;;5.93;79.87;101184.19;5034475;28;45794;-50
2022/12/19 05:08:44;;;;;;;;;9.50;9.25;;;;;5.86;79.17;101163.25;5033167;28;45923;-55
2022/12/19 05:11:12;;;;;;;;;18.00;15.25;;;;;5.93;79.55;101175.19;5033288;28;45417;-53
2022/12/19 05:13:37;;;;;;;;;12.60;12.60;;;;;5.96;79.27;101170.25;5041285;28;45514;-56
2022/12/19 05:16:05;;;;;;;;;14.75;13.75;;;;;6.01;79.37;101182.47;5057790;28;46360;-57
2022/12/19 05:18:30;;;;;;;;;13.20;13.20;;;;;6.00;80.02;101187.09;5057953;28;45431;-54
2022/12/19 05:20:56;;;;;;;;;12.00;12.00;;;;;6.02;80.10;101179.63;5058241;28;45284;-55
2022/12/19 05:23:21;;;;;;;;;10.00;9.00;;;;;6.03;79.92;101181.31;5058265;28;45300;-52
2022/12/19 05:25:47;;;;;;;;;16.00;11.50;;;;;6.07;79.34;101182.69;5073249;28;47432;-53
2022/12/19 05:28:13;;;;;;;;;14.50;12.75;;;;;5.81;78.74;101128.34;5056671;28;45707;-53
2022/12/19 05:30:38;;;;;;;;;13.25;11.75;;;;;5.84;79.84;101137.00;5057850;28;45420;-53
2022/12/19 05:33:04;;;;;;;;;14.50;13.75;;;;;6.09;79.26;101177.91;5056940;28;45479;-54
2022/12/19 05:35:29;;;;;;;;;15.75;13.75;;;;;6.09;79.72;101180.63;5057551;28;46425;-56
2022/12/19 05:37:55;;;;;;;;;11.25;10.50;;;;;6.12;78.96;101179.44;5057720;28;45422;-55
2022/12/19 05:40:20;;;;;;;;;13.00;11.25;;;;;6.13;79.56;101191.22;5057599;28;45345;-56
2022/12/19 05:42:46;;;;;;;;;13.00;11.50;;;;;6.15;79.21;101189.16;5057802;28;45380;-55
2022/12/19 05:45:11;;;;;;;;;17.25;13.00;;;;;6.12;79.59;101176.72;5057521;28;46013;-52
2022/12/19 05:47:37;;;;;;;;;12.00;9.75;;;;;6.22;79.51;101192.91;5052599;28;45368;-51
2022/12/19 05:50:04;;;;;;;;;13.75;11.25;;;;;6.26;79.01;101191.53;5037637;28;45310;-54
2022/12/19 05:52:30;;;;;;;;;15.00;11.20;;;;;6.04;78.87;101141.31;5037620;28;45300;-52
2022/12/19 05:54:55;;;;;;;;;10.00;10.00;;;;;6.29;79.09;101184.91;5030088;28;46247;-51
2022/12/19 05:57:21;;;;;;;;;13.50;12.75;;;;;6.28;79.24;101181.31;5056742;28;45633;-55
2022/12/19 05:59:46;;;;;;;;;14.00;11.00;;;;;6.29;78.92;101183.00;5053173;28;45405;-55
2022/12/19 06:02:12;;;;;;;;;11.00;10.00;;;;;6.30;78.94;101184.69;5057612;28;45471;-57
2022/12/19 06:04:37;;;;;;;;;12.25;10.00;;;;;6.31;78.91;101183.69;5055909;28;46177;-56
2022/12/19 06:07:04;;;;;;;;;10.50;10.50;;;;;6.32;79.10;101185.41;5055837;28;45391;-57
2022/12/19 06:09:29;;;;;;;;;11.20;9.20;;;;;6.34;78.55;101190.66;5057612;28;45433;-54
2022/12/19 06:11:55;;;;;;;;;17.00;13.25;;;;;6.34;79.15;101188.78;5057677;28;45383;-52
2022/12/19 06:14:20;;;;;;;;;15.75;12.50;;;;;6.37;78.80;101185.72;5050450;28;46369;-52
2022/12/19 06:16:46;;;;;;;;;14.00;12.00;;;;;6.40;78.62;101180.94;5036835;28;45258;-54
2022/12/19 06:19:11;;;;;;;;;9.50;9.50;;;;;6.41;78.56;101188.94;5037047;28;45456;-55
2022/12/19 06:21:37;;;;;;;;;11.00;9.00;;;;;6.40;78.47;101184.50;5037394;28;45375;-54
2022/12/19 06:24:02;;;;;;;;;16.00;12.50;;;;;6.41;78.37;101188.09;5036027;28;45730;-55
2022/12/19 06:26:29;;;;;;;;;10.25;10.25;;;;;6.40;79.16;101186.41;5035679;28;45426;-56
2022/12/19 06:28:55;;;;;;;;;15.40;13.80;;;;;6.40;79.04;101186.41;5036660;28;45306;-54
2022/12/19 06:31:21;;;;;;;;;14.50;11.50;;;;;6.41;78.93;101188.94;5037254;28;45219;-54
2022/12/19 06:33:47;;;;;;;;;12.40;10.20;;;;;6.36;79.07;101169.53;5036619;28;46157;-53
2022/12/19 06:36:12;;;;;;;;;15.75;14.00;;;;;6.23;78.92;101154.56;5036847;28;45335;-52
2022/12/19 06:38:38;;;;;;;;;14.50;13.00;;;;;6.21;78.62;101140.28;5037107;28;45596;-51
2022/12/19 06:43:47;;;;;;;;;12.00;10.20;;;;;6.41;79.17;101164.41;5036070;28;45766;-53
2022/12/19 06:46:13;;;;;;;;;12.75;12.75;;;;;6.41;79.38;101169.84;5035196;28;45388;-53
2022/12/19 06:48:38;;;;;;;;;11.25;10.25;;;;;6.37;79.21;101160.34;5036609;28;45442;-54
2022/12/19 06:51:04;;;;;;;;;16.00;11.00;;;;;6.45;78.60;101173.09;5036374;28;45271;-55
2022/12/19 06:53:29;;;;;;;;;12.50;11.25;;;;;6.45;79.36;101167.66;5035282;28;45379;-57
2022/12/19 06:55:56;;;;;;;;;16.75;11.75;;;;;6.48;79.27;101167.28;5035891;28;45400;-56
2022/12/19 06:58:21;;;;;;;;;13.00;13.00;;;;;6.46;79.34;101155.72;5035575;28;45387;-55
2022/12/19 07:00:47;;;;;;;;;14.25;11.75;;;;;6.47;78.95;101166.44;5036569;28;45404;-55
2022/12/19 07:03:14;;;;;;;;;14.00;11.75;;;;;6.48;78.72;101162.69;5035977;28;45420;-51
2022/12/19 07:05:39;;;;;;;;;13.40;11.40;;;;;6.45;79.41;101154.03;5034928;28;45460;-50
2022/12/19 07:08:06;;;;;;;;;11.75;11.75;;;;;6.42;79.14;101157.94;5034998;28;45406;-52
2022/12/19 07:10:31;;;;;;;;;11.80;11.80;;;;;6.52;78.98;101176.84;5018822;28;45463;-54
2022/12/19 07:12:57;;;;;;;;;15.00;11.50;;;;;6.54;78.53;101171.19;5034548;28;47423;-55
2022/12/19 07:15:22;;;;;;;;;11.75;10.00;;;;;6.47;78.72;101157.41;5049510;28;45332;-56
2022/12/19 07:17:48;;;;;;;;;10.75;9.75;;;;;6.58;78.52;101167.97;5038546;28;45369;-54
2022/12/19 07:20:14;;;;;;;;;16.00;11.00;;;;;6.59;78.46;101168.78;5056166;28;45606;-55
2022/12/19 07:22:40;;;;;;;;;12.20;10.60;;;;;6.57;79.00;101177.13;5038307;28;46660;-51
2022/12/19 07:25:06;;;;;;;;;11.75;9.50;;;;;6.57;79.13;101188.03;5054490;28;45395;-53
2022/12/19 07:27:32;;;;;;;;;12.80;11.80;;;;;6.59;78.53;101183.28;5055112;28;45349;-53
2022/12/19 07:29:57;;;;;;;;;13.25;11.25;;;;;6.56;78.67;101189.09;5055099;28;45595;-51
2022/12/19 07:32:23;;;;;;;;;11.00;10.00;;;;;6.55;79.06;101187.38;5054450;28;47246;-54
2022/12/19 07:34:48;;;;;;;;;9.50;9.25;;;;;6.56;78.80;101186.34;5055847;28;45312;-56
2022/12/19 07:37:14;;;;;;;;;14.25;13.00;;;;;6.56;78.81;101194.53;5053441;28;45365;-56
2022/12/19 07:39:39;;;;;;;;;9.00;7.00;;;;;6.32;79.13;101157.28;5056260;28;45336;-58
2022/12/19 07:42:04;;;;;;;;;13.00;10.50;;;;;6.49;79.10;101188.06;5055554;28;45475;-58
2022/12/19 07:44:30;;;;;;;;;18.25;13.50;;;;;6.52;79.02;101190.47;5055281;28;45306;-58
2022/12/19 07:46:56;;;;;;;;;16.50;10.00;;;;;6.53;79.43;101186.72;5071665;28;45333;-57
2022/12/19 07:49:21;;;;;;;;;9.00;9.00;;;;;6.53;78.82;101177.66;5055725;28;45503;-55
2022/12/19 07:51:47;;;;;;;;;6.25;6.25;;;;;6.46;79.55;101175.63;5055794;28;46345;-52
2022/12/19 07:54:12;;;;;;;;;11.00;10.00;;;;;6.54;79.42;101185.69;5055291;28;45309;-52
2022/12/19 07:56:38;;;;;;;;;8.50;8.50;;;;;6.51;78.47;101186.00;5056096;28;45390;-55
2022/12/19 07:59:03;;;;;;;;;10.75;9.50;;;;;6.49;78.50;101186.22;5054571;28;45408;-56
2022/12/19 08:01:29;;;;;;;;;11.75;11.00;;;;;6.36;79.02;101153.19;5055222;28;45628;-57
2022/12/19 08:03:54;;;;;;;;;11.25;9.75;;;;;6.37;78.71;101160.34;5055363;28;45361;-57
2022/12/19 08:06:20;;;;;;;;;8.50;8.50;;;;;6.60;78.42;101198.63;5055253;28;45462;-58
2022/12/19 08:08:46;;;;;;;;;10.50;10.50;;;;;6.62;78.85;101209.38;5055792;28;45414;-56
2022/12/19 08:11:16;;;;;;;;;9.25;9.00;;;;;6.59;78.68;101206.97;5055224;28;46772;-53
2022/12/19 08:13:42;;;;;;;;;12.40;11.00;;;;;6.22;78.83;101133.78;5053614;28;45340;-58
2022/12/19 08:16:07;;;;;;;;;14.50;13.25;;;;;6.72;78.13;101206.44;5034484;28;45341;-61
2022/12/19 08:18:33;;;;;;;;;11.00;10.25;;;;;6.75;78.20;101208.81;5035284;28;45378;-59
2022/12/19 08:20:58;;;;;;;;;15.00;12.25;;;;;6.80;77.67;101206.41;5035039;28;46256;-59
2022/12/19 08:23:24;;;;;;;;;12.75;10.25;;;;;6.64;77.75;101172.72;5034833;28;45298;-60
2022/12/19 08:26:00;;;;;;;;;9.00;9.00;;;;;6.84;77.80;101199.56;5035337;28;45329;-60
2022/12/19 08:28:26;;;;;;;;;10.80;10.80;;;;;6.80;77.36;101190.03;5035237;28;45534;-55
2022/12/19 08:30:52;;;;;;;;;4.50;4.50;;;;;6.89;77.54;101210.81;5034892;28;46117;-56
2022/12/19 08:33:17;;;;;;;;;10.25;7.50;;;;;6.70;77.21;101178.47;5035215;28;45659;-57
2022/12/19 08:35:43;;;;;;;;;13.00;10.50;;;;;6.71;77.56;101169.25;5033440;28;45415;-58
2022/12/19 08:38:09;;;;;;;;;12.00;9.25;;;;;6.67;77.63;101159.75;5021237;28;45356;-60
2022/12/19 08:40:34;;;;;;;;;12.00;12.00;;;;;6.96;77.13;101202.78;5016743;28;46830;-58
2022/12/19 08:43:00;;;;;;;;;11.00;10.00;;;;;6.98;76.99;101205.34;5034798;28;45515;-56
2022/12/19 08:45:25;;;;;;;;;9.50;9.50;;;;;7.00;77.25;101211.47;5035234;28;45345;-53
2022/12/19 08:47:51;;;;;;;;;15.00;10.00;;;;;6.97;77.61;101206.34;5034619;28;45937;-53
2022/12/19 08:50:17;;;;;;;;;12.75;9.75;;;;;6.79;76.81;101174.69;5034891;28;46223;-54
2022/12/19 08:52:42;;;;;;;;;10.50;10.25;;;;;6.76;76.96;101167.72;5034745;28;45358;-51
2022/12/19 08:55:09;;;;;;;;;15.00;13.50;;;;;7.05;76.66;101212.63;5034777;28;45356;-55
2022/12/19 08:57:34;;;;;;;;;17.60;13.00;;;;;7.00;76.84;101203.28;5035498;28;45634;-56
2022/12/19 09:00:00;;;;;;;;;11.25;11.25;;;;;7.11;76.77;101215.69;5033266;28;45481;-58
2022/12/19 09:02:25;;;;;;;;;11.00;11.00;;;;;7.14;76.76;101213.44;5033728;28;45390;-59
2022/12/19 09:04:51;;;;;;;;;10.25;10.25;;;;;7.17;76.58;101198.59;5034301;28;45413;-58
2022/12/19 09:07:16;;;;;;;;;11.00;10.00;;;;;7.17;76.39;101207.63;5035309;28;45440;-59
2022/12/19 09:09:43;;;;;;;;;10.75;10.75;;;;;7.18;76.31;101201.16;5034598;28;46708;-56
2022/12/19 09:12:09;;;;;;;;;6.80;6.80;;;;;7.20;76.20;101206.41;5033958;28;45314;-56
2022/12/19 09:14:35;;;;;;;;;13.75;11.25;;;;;7.19;76.07;101213.75;5040087;28;45485;-59
2022/12/19 09:17:00;;;;;;;;;14.00;10.75;;;;;7.19;75.88;101211.03;5070332;28;45623;-60
2022/12/19 09:19:26;;;;;;;;;10.50;10.50;;;;;7.12;76.13;101203.72;5054872;28;46463;-60
2022/12/19 09:21:51;;;;;;;;;11.75;10.75;;;;;7.15;76.01;101211.56;5054295;28;45313;-60
2022/12/19 09:24:17;;;;;;;;;12.25;10.00;;;;;7.16;76.33;101216.00;5042394;28;45278;-57
2022/12/19 09:26:44;;;;;;;;;15.75;13.50;;;;;7.18;76.05;101209.34;5049474;28;45441;-56
2022/12/19 09:29:10;;;;;;;;;11.80;10.60;;;;;7.19;75.75;101218.38;5033118;28;45849;-60
2022/12/19 09:31:35;;;;;;;;;9.50;9.50;;;;;7.00;75.93;101184.16;5015471;28;45555;-60
2022/12/19 09:34:01;;;;;;;;;12.25;10.25;;;;;6.97;76.20;101179.06;5050532;28;45567;-57
2022/12/19 09:36:27;;;;;;;;;19.50;14.50;;;;;7.23;75.97;101235.25;5052494;28;45508;-60
2022/12/19 09:38:53;;;;;;;;;10.60;10.20;;;;;7.23;76.08;101235.25;5018471;28;46431;-60
2022/12/19 09:41:31;;;;;;;;;11.40;10.80;;;;;7.23;76.30;101230.63;5051932;28;45708;-62
2022/12/19 09:44:30;;;;;;;;;13.60;10.00;;;;;7.10;76.40;101212.09;5054380;28;45282;-59
2022/12/19 09:47:00;;;;;;;;;21.20;18.00;;;;;7.32;75.38;101253.31;5052832;28;45600;-61
2022/12/19 09:49:35;;;;;;;;;17.40;13.40;;;;;7.35;75.69;101252.94;5053236;28;46412;-59
2022/12/19 09:52:38;;;;;;;;;11.20;9.40;;;;;7.36;75.72;101262.00;5054376;28;45380;-60
2022/12/19 09:55:10;;;;;;;;;11.00;11.00;;;;;7.35;75.80;101260.28;5053213;28;45896;-61
2022/12/19 09:57:43;;;;;;;;;20.80;14.60;;;;;7.34;75.85;101253.97;5053248;28;45427;-59
2022/12/19 10:00:14;;;;;;;;;11.60;10.20;;;;;7.36;75.21;101251.06;5054847;28;45411;-58
2022/12/19 10:02:55;;;;;;;;;14.00;10.60;;;;;7.35;75.67;101255.66;5056526;28;45529;-60
2022/12/19 10:05:34;;;;;;;;;14.00;11.00;;;;;7.27;75.77;101237.44;5056322;28;45448;-60
2022/12/19 10:08:00;;;;;;;;;15.80;12.80;;;;;7.35;75.52;101241.19;5040409;28;45301;-59
2022/12/19 10:10:50;;;;;;;;;15.00;12.20;;;;;7.40;75.35;101241.47;5055974;28;48072;-60
2022/12/19 10:13:25;;;;;;;;;13.60;10.80;;;;;7.26;75.86;101207.59;5057646;28;45547;-61
2022/12/19 10:15:55;;;;;;;;;16.80;12.40;;;;;7.46;75.53;101230.69;5054078;28;45514;-58
2022/12/19 10:18:25;;;;;;;;;13.00;13.00;;;;;7.36;75.00;101207.38;5050083;28;45530;-61
2022/12/19 10:21:01;;;;;;;;;13.00;12.20;;;;;7.53;75.28;101229.97;5054137;28;45695;-60
2022/12/19 10:23:46;;;;;;;;;10.40;9.60;;;;;7.39;74.76;101198.81;5054739;28;45472;-61
2022/12/19 10:26:15;;;;;;;;;12.20;11.00;;;;;7.60;74.97;101225.50;5071144;28;45424;-60
2022/12/19 10:29:13;;;;;;;;;14.20;10.60;;;;;7.54;74.54;101201.63;5056254;28;45352;-59
2022/12/19 10:32:20;;;;;;;;;13.00;11.00;;;;;7.67;74.94;101218.28;5061520;28;45329;-59
2022/12/19 10:34:45;;;;;;;;;10.80;10.60;;;;;7.69;74.58;101218.94;5048355;28;46208;-59
2022/12/19 10:37:26;;;;;;;;;11.00;10.00;;;;;7.68;74.95;101221.88;5054337;28;45932;-60
2022/12/19 10:40:13;;;;;;;;;10.00;10.00;;;;;7.76;74.14;101210.88;5014968;28;45367;-62
2022/12/19 10:42:49;;;;;;;;;13.60;11.60;;;;;7.24;74.59;101122.25;5053702;28;47438;-60
2022/12/19 10:45:17;;;;;;;;;13.40;11.60;;;;;7.71;74.54;101191.44;5053118;28;45822;-60
2022/12/19 10:47:53;;;;;;;;;17.00;15.00;;;;;7.71;74.60;101200.50;5037164;28;45831;-62
2022/12/19 10:50:20;;;;;;;;;11.40;10.40;;;;;7.41;73.94;101151.16;5053843;28;45634;-59
2022/12/19 10:52:54;;;;;;;;;11.40;10.20;;;;;7.80;73.96;101214.91;5055046;28;46161;-60
2022/12/19 10:55:42;;;;;;;;;12.00;11.00;;;;;7.83;74.07;101214.56;5055538;28;45415;-60
2022/12/19 10:58:15;;;;;;;;;9.80;9.20;;;;;7.69;73.96;101183.41;5048893;28;45352;-58
2022/12/19 11:01:14;;;;;;;;;10.00;8.20;;;;;7.90;74.12;101213.84;5033480;28;45533;-60
2022/12/19 11:03:45;;;;;;;;;14.60;14.60;;;;;7.93;74.11;101211.59;5024221;28;47437;-59
2022/12/19 11:06:43;;;;;;;;;16.00;12.60;;;;;7.92;73.84;101198.97;5017972;28;45450;-62
2022/12/19 11:09:18;;;;;;;;;12.00;11.20;;;;;7.36;73.51;101111.78;5055103;28;45618;-59
2022/12/19 11:12:11;;;;;;;;;13.80;12.00;;;;;7.93;73.23;101205.25;5053192;28;45689;-59
2022/12/19 11:14:39;;;;;;;;;15.20;11.00;;;;;7.70;73.52;101159.69;5054657;28;45775;-51
2022/12/19 11:17:06;;;;;;;;;12.00;10.40;;;;;7.94;74.06;101204.22;5053580;28;45347;-60
2022/12/19 11:19:32;;;;;;;;;16.20;13.00;;;;;7.94;74.21;101191.44;5054712;28;45393;-58
2022/12/19 11:22:00;;;;;;;;;10.80;10.40;;;;;7.94;73.27;101191.44;5053519;28;45455;-61
2022/12/19 11:24:45;;;;;;;;;10.60;10.60;;;;;7.98;74.17;101179.09;5053442;28;45465;-59
2022/12/19 11:27:40;;;;;;;;;15.20;11.60;;;;;7.77;74.05;101137.94;5036485;28;45412;-59
2022/12/19 11:30:15;;;;;;;;;10.80;10.80;;;;;8.06;73.38;101177.31;5021426;28;45366;-59
2022/12/19 11:32:44;;;;;;;;;12.00;10.80;;;;;8.07;73.38;101182.59;5054463;28;45833;-60
2022/12/19 11:35:17;;;;;;;;;15.40;13.40;;;;;7.80;73.38;101129.38;5054312;28;46719;-59
2022/12/19 11:37:57;;;;;;;;;13.80;12.80;;;;;7.92;73.83;101154.38;5052289;28;45381;-60